FLY weather

Finley Airport
New South Wales, Australia

Public forecast

Using degrees Celsius for public forecast. Weather courtesy of forecast.io.

METAR (pilot weather report)

Closest report is Wangaratta Airport, 58.1 nm (107.6 km) SE. Retrieved 2019/03/27 00:00 UTC (1 minute ago):

YWGT 270000Z AUTO 06003KT 9999 // NCD 16/05 Q1024

TAF (pilot weather forecast)

Closest forecast is Wangaratta Airport, 58.1 nm (107.6 km) SE. Retrieved 2019/03/26 19:00 UTC (5 hours ago):

TAF YWGT 261805Z 2619/2708 VRB05KT CAVOK